createdAt,value
2022-11-13T00:01:11.540Z,2.40
2022-11-13T00:03:37.849Z,2.41
2022-11-13T00:06:04.475Z,2.37
2022-11-13T00:08:31.335Z,2.36
2022-11-13T00:11:04.603Z,2.36
2022-11-13T00:13:31.281Z,2.36
2022-11-13T00:16:01.344Z,2.32
2022-11-13T00:18:28.473Z,2.34
2022-11-13T00:20:55.027Z,2.33
2022-11-13T00:23:21.412Z,2.33
2022-11-13T00:25:47.684Z,2.32
2022-11-13T00:28:13.968Z,2.36
2022-11-13T00:30:40.255Z,2.38
2022-11-13T00:33:06.560Z,2.35
2022-11-13T00:35:33.358Z,2.35
2022-11-13T00:37:59.660Z,2.42
2022-11-13T00:40:26.009Z,2.39
2022-11-13T00:42:52.287Z,2.42
2022-11-13T00:45:18.579Z,2.41
2022-11-13T00:47:44.861Z,2.43
2022-11-13T00:50:11.151Z,2.39
2022-11-13T00:52:37.466Z,2.38
2022-11-13T00:55:03.964Z,2.40
2022-11-13T00:57:30.222Z,2.43
2022-11-13T00:59:56.518Z,2.41
2022-11-13T01:02:22.809Z,2.44
2022-11-13T01:04:49.104Z,2.43
2022-11-13T01:07:15.742Z,2.41
2022-11-13T01:09:42.049Z,2.40
2022-11-13T01:12:08.325Z,2.44
2022-11-13T01:14:34.606Z,2.40
2022-11-13T01:17:00.889Z,2.39
2022-11-13T01:19:27.163Z,2.39
2022-11-13T01:21:53.449Z,2.41
2022-11-13T01:24:19.728Z,2.41
2022-11-13T01:26:46.007Z,2.42
2022-11-13T01:29:12.548Z,2.44
2022-11-13T01:31:38.951Z,2.48
2022-11-13T01:34:05.255Z,2.50
2022-11-13T01:36:31.553Z,2.55
2022-11-13T01:38:57.918Z,2.60
2022-11-13T01:41:26.647Z,2.61
2022-11-13T01:43:54.034Z,2.61
2022-11-13T01:46:22.328Z,2.62
2022-11-13T01:48:51.489Z,2.67
2022-11-13T01:51:40.965Z,2.71
2022-11-13T01:54:09.764Z,2.72
2022-11-13T01:56:36.312Z,2.75
2022-11-13T01:59:14.638Z,2.78
2022-11-13T02:01:41.309Z,2.76
2022-11-13T02:04:07.819Z,2.77
2022-11-13T02:06:55.842Z,2.76
2022-11-13T02:09:24.880Z,2.78
2022-11-13T02:11:52.194Z,2.82
2022-11-13T02:14:19.781Z,2.84
2022-11-13T02:16:47.970Z,2.84
2022-11-13T02:19:19.608Z,2.81
2022-11-13T02:22:24.377Z,2.76
2022-11-13T02:24:54.670Z,2.76
2022-11-13T02:27:26.262Z,2.73
2022-11-13T02:29:53.035Z,2.73
2022-11-13T02:32:19.323Z,2.69
2022-11-13T02:34:45.658Z,2.69
2022-11-13T02:37:12.073Z,2.70
2022-11-13T02:39:38.538Z,2.71
2022-11-13T02:42:04.885Z,2.69
2022-11-13T02:44:31.390Z,2.71
2022-11-13T02:46:57.692Z,2.73
2022-11-13T02:49:24.038Z,2.70
2022-11-13T02:51:50.338Z,2.70
2022-11-13T02:54:17.260Z,2.71
2022-11-13T02:56:43.728Z,2.70
2022-11-13T02:59:10.025Z,2.67
2022-11-13T03:01:36.362Z,2.62
2022-11-13T03:04:03.348Z,2.61
2022-11-13T03:06:29.677Z,2.57
2022-11-13T03:08:56.017Z,2.56
2022-11-13T03:11:22.316Z,2.57
2022-11-13T03:13:48.611Z,2.55
2022-11-13T03:16:15.689Z,2.54
2022-11-13T03:18:42.231Z,2.51
2022-11-13T03:21:09.508Z,2.46
2022-11-13T03:23:35.813Z,2.45
2022-11-13T03:26:02.901Z,2.46
2022-11-13T03:28:29.938Z,2.47
2022-11-13T03:30:56.700Z,2.46
2022-11-13T03:33:23.091Z,2.46
2022-11-13T03:35:49.657Z,2.44
2022-11-13T03:38:15.970Z,2.41
2022-11-13T03:40:42.911Z,2.39
2022-11-13T03:43:09.225Z,2.38
2022-11-13T03:45:35.663Z,2.38
2022-11-13T03:48:02.000Z,2.32
2022-11-13T03:50:28.292Z,2.33
2022-11-13T03:52:54.592Z,2.28
2022-11-13T03:55:20.879Z,2.26
2022-11-13T03:57:47.636Z,2.26
2022-11-13T04:00:14.637Z,2.25
2022-11-13T04:02:41.185Z,2.24
2022-11-13T04:05:07.949Z,2.26
2022-11-13T04:07:34.245Z,2.24
2022-11-13T04:10:00.597Z,2.24
2022-11-13T04:12:26.980Z,2.25
2022-11-13T04:14:53.278Z,2.27
2022-11-13T04:17:19.587Z,2.28
2022-11-13T04:19:45.926Z,2.28
2022-11-13T04:22:12.569Z,2.32
2022-11-13T04:24:38.854Z,2.32
2022-11-13T04:27:05.141Z,2.35
2022-11-13T04:29:31.431Z,2.36
2022-11-13T04:31:57.714Z,2.34
2022-11-13T04:34:23.999Z,2.34
2022-11-13T04:36:50.358Z,2.35
2022-11-13T04:39:16.870Z,2.30
2022-11-13T04:42:01.835Z,2.31
2022-11-13T04:44:28.122Z,2.31
2022-11-13T04:46:54.614Z,2.28
2022-11-13T04:49:20.902Z,2.31
2022-11-13T04:51:47.189Z,2.25
2022-11-13T04:54:13.675Z,2.20
2022-11-13T04:56:40.287Z,2.18
2022-11-13T04:59:06.635Z,2.17
2022-11-13T05:01:34.619Z,2.15
2022-11-13T05:04:00.929Z,2.16
2022-11-13T05:06:27.199Z,2.16
2022-11-13T05:08:53.522Z,2.15
2022-11-13T05:11:19.825Z,2.10
2022-11-13T05:13:46.407Z,2.10
2022-11-13T05:16:14.093Z,2.11
2022-11-13T05:18:40.781Z,2.11
2022-11-13T05:21:08.220Z,2.10
2022-11-13T05:23:35.045Z,2.09
2022-11-13T05:26:05.294Z,2.06
2022-11-13T05:28:32.139Z,2.06
2022-11-13T05:31:12.128Z,2.11
2022-11-13T05:33:39.294Z,2.10
2022-11-13T05:36:06.918Z,2.06
2022-11-13T05:38:33.269Z,2.07
2022-11-13T05:41:06.424Z,2.07
2022-11-13T05:43:33.241Z,2.11
2022-11-13T05:46:00.700Z,2.15
2022-11-13T05:48:27.414Z,2.24
2022-11-13T05:50:54.140Z,2.28
2022-11-13T05:53:20.499Z,2.29
2022-11-13T05:55:47.683Z,2.31
2022-11-13T05:58:14.064Z,2.32
2022-11-13T06:00:40.423Z,2.35
2022-11-13T06:03:06.773Z,2.36
2022-11-13T06:05:34.922Z,2.34
2022-11-13T06:08:01.279Z,2.37
2022-11-13T06:10:27.667Z,2.39
2022-11-13T06:12:54.494Z,2.42
2022-11-13T06:15:20.782Z,2.47
2022-11-13T06:17:47.175Z,2.47
2022-11-13T06:20:13.828Z,2.51
2022-11-13T06:22:40.144Z,2.56
2022-11-13T06:25:06.623Z,2.58
2022-11-13T06:27:32.912Z,2.62
2022-11-13T06:29:59.316Z,2.70
2022-11-13T06:32:25.674Z,2.73
2022-11-13T06:34:51.960Z,2.73
2022-11-13T06:37:18.259Z,2.77
2022-11-13T06:39:44.542Z,2.80
2022-11-13T06:42:10.882Z,2.88
2022-11-13T06:44:37.167Z,2.90
2022-11-13T06:47:03.535Z,3.01
2022-11-13T06:49:29.822Z,3.01
2022-11-13T06:51:56.124Z,3.09
2022-11-13T06:54:22.462Z,3.14
2022-11-13T06:56:48.869Z,3.17
2022-11-13T06:59:15.158Z,3.16
2022-11-13T07:01:41.493Z,3.20
2022-11-13T07:04:11.764Z,3.18
2022-11-13T07:06:40.464Z,3.26
2022-11-13T07:09:07.346Z,3.35
2022-11-13T07:11:33.671Z,3.42
2022-11-13T07:14:00.254Z,3.46
2022-11-13T07:16:34.911Z,3.57
2022-11-13T07:19:10.679Z,3.60
2022-11-13T07:21:37.395Z,3.58
2022-11-13T07:24:03.918Z,3.60
2022-11-13T07:26:30.486Z,3.71
2022-11-13T07:28:56.816Z,3.79
2022-11-13T07:31:23.286Z,3.98
2022-11-13T07:33:50.090Z,4.11
2022-11-13T07:36:16.410Z,4.19
2022-11-13T07:38:42.847Z,4.25
2022-11-13T07:41:09.204Z,4.34
2022-11-13T07:43:35.588Z,4.36
2022-11-13T07:46:02.222Z,4.44
2022-11-13T07:48:28.845Z,4.41
2022-11-13T07:50:55.725Z,4.44
2022-11-13T07:53:22.952Z,4.50
2022-11-13T07:55:49.354Z,4.55
2022-11-13T07:58:15.872Z,4.65
2022-11-13T08:00:42.312Z,4.71
2022-11-13T08:03:09.615Z,4.74
2022-11-13T08:05:36.196Z,4.76
2022-11-13T08:08:02.988Z,4.81
2022-11-13T08:10:29.523Z,4.85
2022-11-13T08:13:03.591Z,4.92
2022-11-13T08:15:31.016Z,4.98
2022-11-13T08:17:58.377Z,5.00
2022-11-13T08:20:25.417Z,5.03
2022-11-13T08:22:52.570Z,5.04
2022-11-13T08:25:19.226Z,5.08
2022-11-13T08:27:45.581Z,5.13
2022-11-13T08:30:12.506Z,5.14
2022-11-13T08:32:38.846Z,5.18
2022-11-13T08:35:05.491Z,5.16
2022-11-13T08:37:32.725Z,5.23
2022-11-13T08:39:59.030Z,5.28
2022-11-13T08:42:25.623Z,5.36
2022-11-13T08:44:52.065Z,5.44
2022-11-13T08:47:18.378Z,5.55
2022-11-13T08:49:44.791Z,5.69
2022-11-13T08:52:11.116Z,5.80
2022-11-13T08:54:37.822Z,5.94
2022-11-13T08:57:06.093Z,6.03
2022-11-13T08:59:32.583Z,6.17
2022-11-13T09:01:59.694Z,6.23
2022-11-13T09:04:26.574Z,6.30
2022-11-13T09:06:53.322Z,6.35
2022-11-13T09:09:20.338Z,6.39
2022-11-13T09:11:46.691Z,6.35
2022-11-13T09:14:13.090Z,6.41
2022-11-13T09:16:39.410Z,6.46
2022-11-13T09:19:06.182Z,6.53
2022-11-13T09:21:32.520Z,6.50
2022-11-13T09:23:58.799Z,6.60
2022-11-13T09:26:25.154Z,6.65
2022-11-13T09:28:51.483Z,6.68
2022-11-13T09:31:17.786Z,6.63
2022-11-13T09:33:44.137Z,6.66
2022-11-13T09:36:16.278Z,6.73
2022-11-13T09:38:42.979Z,6.73
2022-11-13T09:41:20.702Z,6.77
2022-11-13T09:43:53.084Z,6.78
2022-11-13T09:46:22.987Z,6.82
2022-11-13T09:49:02.600Z,6.82
2022-11-13T09:51:30.323Z,6.81
2022-11-13T09:53:57.777Z,6.76
2022-11-13T09:56:28.479Z,6.77
2022-11-13T09:59:00.576Z,6.75
2022-11-13T10:01:45.759Z,6.74
2022-11-13T10:04:15.063Z,6.75
2022-11-13T10:06:50.583Z,6.77
2022-11-13T10:09:16.921Z,6.71
2022-11-13T10:11:45.718Z,6.69
2022-11-13T10:14:15.232Z,6.69
2022-11-13T10:16:48.167Z,6.71
2022-11-13T10:19:17.512Z,6.72
2022-11-13T10:21:46.657Z,6.62
2022-11-13T10:24:18.571Z,6.59
2022-11-13T10:26:44.874Z,6.49
2022-11-13T10:29:13.088Z,6.44
2022-11-13T10:31:43.574Z,6.46
2022-11-13T10:34:11.231Z,6.45
2022-11-13T10:36:40.507Z,6.44
2022-11-13T10:39:07.695Z,6.42
2022-11-13T10:41:44.973Z,6.40
2022-11-13T10:44:23.070Z,6.39
2022-11-13T10:46:49.414Z,6.34
2022-11-13T10:49:19.791Z,6.33
2022-11-13T10:51:53.934Z,6.34
2022-11-13T10:54:22.771Z,6.34
2022-11-13T10:57:02.758Z,6.33
2022-11-13T10:59:42.802Z,6.39
2022-11-13T11:02:16.133Z,6.42
2022-11-13T11:04:43.181Z,6.45
2022-11-13T11:07:20.671Z,6.49
2022-11-13T11:09:48.351Z,6.43
2022-11-13T11:12:24.304Z,6.48
2022-11-13T11:14:56.501Z,6.55
2022-11-13T11:17:30.142Z,6.63
2022-11-13T11:20:15.101Z,6.66
2022-11-13T11:22:41.911Z,6.73
2022-11-13T11:25:15.719Z,6.72
2022-11-13T11:27:49.089Z,6.78
2022-11-13T11:30:20.460Z,6.81
2022-11-13T11:32:50.062Z,6.87
2022-11-13T11:35:16.439Z,6.92
2022-11-13T11:37:55.484Z,6.97
2022-11-13T11:40:24.560Z,6.97
2022-11-13T11:43:09.808Z,7.00
2022-11-13T11:45:37.824Z,6.97
2022-11-13T11:48:06.205Z,6.96
2022-11-13T11:50:58.571Z,7.00
2022-11-13T11:53:34.286Z,7.01
2022-11-13T11:56:00.543Z,7.06
2022-11-13T11:58:27.753Z,7.05
2022-11-13T12:01:00.983Z,7.06
2022-11-13T12:03:27.272Z,7.11
2022-11-13T12:05:53.543Z,7.15
2022-11-13T12:08:31.389Z,7.11
2022-11-13T12:10:58.040Z,7.14
2022-11-13T12:13:28.232Z,7.13
2022-11-13T12:16:09.682Z,7.20
2022-11-13T12:18:40.383Z,7.19
2022-11-13T12:21:22.300Z,7.14
2022-11-13T12:23:58.925Z,7.13
2022-11-13T12:26:41.526Z,7.12
2022-11-13T12:29:16.849Z,7.11
2022-11-13T12:31:46.646Z,7.09
2022-11-13T12:34:12.911Z,7.08
2022-11-13T12:36:39.243Z,7.08
2022-11-13T12:39:25.479Z,7.06
2022-11-13T12:41:55.245Z,7.06
2022-11-13T12:44:31.857Z,7.08
2022-11-13T12:47:01.177Z,7.13
2022-11-13T12:49:27.589Z,7.12
2022-11-13T12:52:04.463Z,7.13
2022-11-13T12:54:32.597Z,7.15
2022-11-13T12:57:30.689Z,7.16
2022-11-13T13:00:00.436Z,7.24
2022-11-13T13:02:40.530Z,7.31
2022-11-13T13:05:07.505Z,7.38
2022-11-13T13:07:52.199Z,7.45
2022-11-13T13:10:51.097Z,7.48
2022-11-13T13:13:24.630Z,7.46
2022-11-13T13:15:55.710Z,7.48
2022-11-13T13:18:29.823Z,7.47
2022-11-13T13:21:09.856Z,7.50
2022-11-13T13:23:37.896Z,7.63
2022-11-13T13:26:04.265Z,7.64
2022-11-13T13:28:31.573Z,7.72
2022-11-13T13:31:21.826Z,7.80
2022-11-13T13:33:57.006Z,7.83
2022-11-13T13:36:37.770Z,7.87
2022-11-13T13:39:06.861Z,7.97
2022-11-13T13:41:40.007Z,7.96
2022-11-13T13:44:06.324Z,7.96
2022-11-13T13:46:34.161Z,7.93
2022-11-13T13:49:05.948Z,7.90
2022-11-13T13:51:49.422Z,7.93
2022-11-13T13:54:36.066Z,7.99
2022-11-13T13:57:02.429Z,8.06
2022-11-13T13:59:31.701Z,8.11
2022-11-13T14:02:02.146Z,8.14
2022-11-13T14:04:29.462Z,8.23
2022-11-13T14:06:57.006Z,8.24
2022-11-13T14:09:25.215Z,8.18
2022-11-13T14:12:07.799Z,8.19
2022-11-13T14:14:39.063Z,8.16
2022-11-13T14:17:05.486Z,8.12
2022-11-13T14:19:32.017Z,8.07
2022-11-13T14:22:02.872Z,8.09
2022-11-13T14:24:33.981Z,8.09
2022-11-13T14:27:02.390Z,8.09
2022-11-13T14:29:47.127Z,8.10
2022-11-13T14:32:16.064Z,8.09
2022-11-13T14:34:43.512Z,8.10
2022-11-13T14:37:31.172Z,8.10
2022-11-13T14:40:00.325Z,8.06
2022-11-13T14:42:29.791Z,7.99
2022-11-13T14:45:05.752Z,7.97
2022-11-13T14:47:37.422Z,7.93
2022-11-13T14:50:09.017Z,7.90
2022-11-13T14:52:35.315Z,7.90
2022-11-13T14:55:18.798Z,7.92
2022-11-13T14:57:48.913Z,7.91
2022-11-13T15:00:18.786Z,7.95
2022-11-13T15:02:45.062Z,7.91
2022-11-13T15:05:11.336Z,7.90
2022-11-13T15:07:41.007Z,7.88
2022-11-13T15:10:11.863Z,7.88
2022-11-13T15:12:38.142Z,7.87
2022-11-13T15:15:04.998Z,7.91
2022-11-13T15:17:32.674Z,7.92
2022-11-13T15:19:59.613Z,7.90
2022-11-13T15:22:27.929Z,7.89
2022-11-13T15:24:54.861Z,7.90
2022-11-13T15:27:21.806Z,7.88
2022-11-13T15:29:48.588Z,7.87
2022-11-13T15:32:16.004Z,7.87
2022-11-13T15:34:43.105Z,7.89
2022-11-13T15:37:10.727Z,7.89
2022-11-13T15:39:37.116Z,7.89
2022-11-13T15:42:05.191Z,7.89
2022-11-13T15:44:31.473Z,7.89
2022-11-13T15:46:57.783Z,7.89
2022-11-13T15:49:24.136Z,7.90
2022-11-13T15:51:50.604Z,7.91
2022-11-13T15:54:23.770Z,7.92
2022-11-13T15:56:50.405Z,7.92
2022-11-13T15:59:16.999Z,7.90
2022-11-13T16:01:43.681Z,7.88
2022-11-13T16:04:12.909Z,7.89
2022-11-13T16:06:40.296Z,7.88
2022-11-13T16:09:09.737Z,7.89
2022-11-13T16:11:36.542Z,7.90
2022-11-13T16:14:02.987Z,7.91
2022-11-13T16:16:34.518Z,7.89
2022-11-13T16:19:01.603Z,7.91
2022-11-13T16:21:28.166Z,7.91
2022-11-13T16:23:54.495Z,7.91
2022-11-13T16:26:25.977Z,7.92
2022-11-13T16:29:12.614Z,7.90
2022-11-13T16:31:39.483Z,7.91
2022-11-13T16:34:05.848Z,7.91
2022-11-13T16:36:32.419Z,7.90
2022-11-13T16:38:58.842Z,7.91
2022-11-13T16:41:25.570Z,7.92
2022-11-13T16:43:51.957Z,7.93
2022-11-13T16:46:18.930Z,7.94
2022-11-13T16:48:45.494Z,7.96
2022-11-13T16:51:11.875Z,7.92
2022-11-13T16:53:38.221Z,7.95
2022-11-13T16:56:11.277Z,7.96
2022-11-13T16:58:37.602Z,7.93
2022-11-13T17:01:05.110Z,7.94
2022-11-13T17:03:31.885Z,7.96
2022-11-13T17:05:58.349Z,7.95
2022-11-13T17:08:24.618Z,7.97
2022-11-13T17:10:57.563Z,7.97
2022-11-13T17:13:23.833Z,7.95
2022-11-13T17:15:50.132Z,7.97
2022-11-13T17:18:16.425Z,7.99
2022-11-13T17:20:42.815Z,8.00
2022-11-13T17:23:15.996Z,8.02
2022-11-13T17:25:42.308Z,8.00
2022-11-13T17:28:08.585Z,8.00
2022-11-13T17:30:34.877Z,8.01
2022-11-13T17:33:01.158Z,8.00
2022-11-13T17:35:27.438Z,8.02
2022-11-13T17:37:53.770Z,8.04
2022-11-13T17:40:20.206Z,8.04
2022-11-13T17:42:48.410Z,8.06
2022-11-13T17:45:14.845Z,8.06
2022-11-13T17:47:41.123Z,8.08
2022-11-13T17:50:08.009Z,8.08
2022-11-13T17:52:34.524Z,8.09
2022-11-13T17:55:00.873Z,8.10
2022-11-13T17:57:27.338Z,8.12
2022-11-13T17:59:56.966Z,8.13
2022-11-13T18:02:23.901Z,8.13
2022-11-13T18:04:50.258Z,8.15
2022-11-13T18:07:16.734Z,8.15
2022-11-13T18:09:43.048Z,8.16
2022-11-13T18:12:10.790Z,8.17
2022-11-13T18:14:37.365Z,8.19
2022-11-13T18:17:03.744Z,8.22
2022-11-13T18:19:30.511Z,8.23
2022-11-13T18:21:56.838Z,8.24
2022-11-13T18:24:23.285Z,8.25
2022-11-13T18:26:49.641Z,8.25
2022-11-13T18:29:16.078Z,8.26
2022-11-13T18:31:42.535Z,8.27
2022-11-13T18:34:12.555Z,8.26
2022-11-13T18:36:39.043Z,8.28
2022-11-13T18:39:05.687Z,8.30
2022-11-13T18:41:34.303Z,8.30
2022-11-13T18:44:00.664Z,8.33
2022-11-13T18:46:26.999Z,8.32
2022-11-13T18:48:54.974Z,8.32
2022-11-13T18:51:22.726Z,8.35
2022-11-13T18:53:49.843Z,8.35
2022-11-13T18:56:17.442Z,8.38
2022-11-13T18:58:44.609Z,8.40
2022-11-13T19:01:21.796Z,8.42
2022-11-13T19:04:08.369Z,8.44
2022-11-13T19:06:36.671Z,8.45
2022-11-13T19:09:05.113Z,8.47
2022-11-13T19:11:31.965Z,8.49
2022-11-13T19:13:58.421Z,8.51
2022-11-13T19:16:25.993Z,8.52
2022-11-13T19:18:52.335Z,8.52
2022-11-13T19:21:19.470Z,8.50
2022-11-13T19:23:45.763Z,8.52
2022-11-13T19:26:12.192Z,8.52
2022-11-13T19:28:38.966Z,8.53
2022-11-13T19:31:09.179Z,8.55
2022-11-13T19:33:35.603Z,8.56
2022-11-13T19:36:06.197Z,8.56
2022-11-13T19:38:32.504Z,8.59
2022-11-13T19:40:58.797Z,8.58
2022-11-13T19:43:25.121Z,8.57
2022-11-13T19:45:51.415Z,8.58
2022-11-13T19:48:19.030Z,8.61
2022-11-13T19:50:47.318Z,8.60
2022-11-13T19:53:14.357Z,8.62
2022-11-13T19:55:40.838Z,8.64
2022-11-13T19:58:07.184Z,8.66
2022-11-13T20:00:33.490Z,8.66
2022-11-13T20:03:02.626Z,8.67
2022-11-13T20:05:32.778Z,8.67
2022-11-13T20:07:59.165Z,8.66
2022-11-13T20:10:25.565Z,8.66
2022-11-13T20:12:51.846Z,8.65
2022-11-13T20:15:18.143Z,8.64
2022-11-13T20:17:44.551Z,8.65
2022-11-13T20:20:11.050Z,8.65
2022-11-13T20:22:37.598Z,8.65
2022-11-13T20:25:04.080Z,8.65
2022-11-13T20:27:30.374Z,8.65
2022-11-13T20:29:57.741Z,8.66
2022-11-13T20:32:24.250Z,8.65
2022-11-13T20:34:50.667Z,8.65
2022-11-13T20:37:16.974Z,8.65
2022-11-13T20:39:43.580Z,8.66
2022-11-13T20:42:09.930Z,8.63
2022-11-13T20:44:36.204Z,8.64
2022-11-13T20:47:02.933Z,8.62
2022-11-13T20:49:29.336Z,8.63
2022-11-13T20:51:57.272Z,8.62
2022-11-13T20:54:23.975Z,8.60
2022-11-13T20:56:50.797Z,8.60
2022-11-13T20:59:17.206Z,8.55
2022-11-13T21:01:43.526Z,8.56
2022-11-13T21:04:10.413Z,8.50
2022-11-13T21:06:36.741Z,8.48
2022-11-13T21:09:03.566Z,8.47
2022-11-13T21:11:32.860Z,8.44
2022-11-13T21:14:00.616Z,8.42
2022-11-13T21:16:28.150Z,8.42
2022-11-13T21:18:55.210Z,8.41
2022-11-13T21:21:21.974Z,8.40
2022-11-13T21:24:08.933Z,8.40
2022-11-13T21:26:35.611Z,8.40
2022-11-13T21:29:02.001Z,8.37
2022-11-13T21:31:28.322Z,8.37
2022-11-13T21:33:54.774Z,8.33
2022-11-13T21:36:22.465Z,8.34
2022-11-13T21:38:49.548Z,8.35
2022-11-13T21:41:21.924Z,8.36
2022-11-13T21:43:51.308Z,8.35
2022-11-13T21:46:18.058Z,8.34
2022-11-13T21:48:44.915Z,8.35
2022-11-13T21:51:11.531Z,8.36
2022-11-13T21:53:38.238Z,8.32
2022-11-13T21:56:05.022Z,8.35
2022-11-13T21:58:32.250Z,8.35
2022-11-13T22:00:59.323Z,8.34
2022-11-13T22:03:27.716Z,8.34
2022-11-13T22:06:13.934Z,8.36
2022-11-13T22:08:40.399Z,8.38
2022-11-13T22:11:06.787Z,8.36
2022-11-13T22:13:33.073Z,8.39
2022-11-13T22:15:59.633Z,8.42
2022-11-13T22:18:26.091Z,8.40
2022-11-13T22:20:52.538Z,8.39
2022-11-13T22:23:18.839Z,8.38
2022-11-13T22:25:45.264Z,8.36
2022-11-13T22:28:11.558Z,8.36
2022-11-13T22:30:37.998Z,8.36
2022-11-13T22:33:04.655Z,8.36
2022-11-13T22:35:30.936Z,8.35
2022-11-13T22:37:57.338Z,8.37
2022-11-13T22:40:23.653Z,8.31
2022-11-13T22:42:49.965Z,8.31
2022-11-13T22:45:23.718Z,8.31
2022-11-13T22:47:50.542Z,8.28
2022-11-13T22:50:16.874Z,8.27
2022-11-13T22:52:43.140Z,8.28
2022-11-13T22:55:09.430Z,8.27
2022-11-13T22:57:35.714Z,8.26
2022-11-13T23:00:02.466Z,8.25
2022-11-13T23:02:28.739Z,8.22
2022-11-13T23:04:55.037Z,8.22
2022-11-13T23:07:21.388Z,8.22
2022-11-13T23:09:47.699Z,8.21
2022-11-13T23:12:13.990Z,8.21
2022-11-13T23:14:40.317Z,8.20
2022-11-13T23:17:06.605Z,8.17
2022-11-13T23:19:32.887Z,8.17
2022-11-13T23:21:59.180Z,8.17
2022-11-13T23:24:25.527Z,8.16
2022-11-13T23:26:51.796Z,8.15
2022-11-13T23:29:18.110Z,8.16
2022-11-13T23:31:44.401Z,8.12
2022-11-13T23:34:10.719Z,8.12
2022-11-13T23:36:37.026Z,8.10
2022-11-13T23:39:03.389Z,8.09
2022-11-13T23:41:29.668Z,8.08
2022-11-13T23:44:11.512Z,8.04
2022-11-13T23:46:37.882Z,8.00
2022-11-13T23:49:04.300Z,7.99
2022-11-13T23:51:30.591Z,7.96
2022-11-13T23:53:56.867Z,7.92
2022-11-13T23:56:23.158Z,7.88
2022-11-13T23:58:51.766Z,7.85
